createdAt,value
2017-10-31T00:02:34.385Z,94985.33
2017-10-31T00:17:34.861Z,94982.60
2017-10-31T00:32:42.242Z,94999.59
2017-10-31T00:47:34.719Z,94974.39
2017-10-31T01:02:34.702Z,94983.66
2017-10-31T01:17:36.009Z,94980.95
2017-10-31T01:32:37.257Z,94993.22
2017-10-31T01:47:37.029Z,95001.52
2017-10-31T02:02:39.387Z,95006.72
2017-10-31T02:17:35.327Z,95043.82
2017-10-31T02:32:35.569Z,95056.42
2017-10-31T02:47:35.271Z,95068.13
2017-10-31T03:02:35.143Z,95078.00
2017-10-31T03:17:34.563Z,95084.81
2017-10-31T03:32:37.465Z,95086.97
2017-10-31T03:47:34.478Z,95118.13
2017-10-31T04:02:35.439Z,95123.48
2017-10-31T04:17:34.967Z,95132.11
2017-10-31T04:32:36.759Z,95106.45
2017-10-31T04:47:36.689Z,95114.52
2017-10-31T05:02:36.706Z,95123.92
2017-10-31T05:17:39.568Z,95122.47
2017-10-31T05:32:37.991Z,95145.50
2017-10-31T06:02:36.692Z,95206.01
2017-10-31T06:17:35.310Z,95215.52
2017-10-31T06:32:40.257Z,95208.14
2017-10-31T06:47:37.194Z,95202.11
2017-10-31T07:02:37.596Z,95224.53
2017-10-31T07:17:38.149Z,95211.83
2017-10-31T07:32:35.059Z,95185.10
2017-10-31T07:47:38.465Z,95208.30
2017-10-31T08:02:35.404Z,95245.37
2017-10-31T08:17:39.808Z,95221.55
2017-10-31T08:32:35.284Z,95227.85
2017-10-31T08:47:35.690Z,95233.05
2017-10-31T09:02:36.564Z,95248.88
2017-10-31T09:17:37.003Z,95241.34
2017-10-31T09:32:37.025Z,95241.12
2017-10-31T09:47:35.919Z,95229.67
2017-10-31T10:02:36.884Z,95212.72
2017-10-31T10:17:37.200Z,95199.10
2017-10-31T10:47:35.065Z,95189.81
2017-10-31T11:02:34.993Z,95169.75
2017-10-31T11:17:34.483Z,95157.92
2017-10-31T11:32:35.595Z,95143.98
2017-10-31T11:47:35.313Z,95135.05
2017-10-31T12:02:34.680Z,95122.48
2017-10-31T12:17:34.692Z,95122.63
2017-10-31T12:32:34.628Z,95115.84
2017-10-31T12:47:34.659Z,95129.95
2017-10-31T13:02:35.000Z,95143.66
2017-10-31T13:17:34.942Z,95132.08
2017-10-31T13:32:35.369Z,95124.88
2017-10-31T13:47:35.119Z,95118.09
2017-10-31T14:02:34.872Z,95127.68
2017-10-31T14:17:35.147Z,95112.20
2017-10-31T14:32:35.041Z,95122.11
2017-10-31T14:47:35.006Z,95125.58
2017-10-31T15:02:34.904Z,95130.44
2017-10-31T15:17:34.374Z,95133.17
2017-10-31T15:32:35.964Z,95130.13
2017-10-31T17:47:34.758Z,95238.22
2017-10-31T18:32:35.147Z,95281.13
2017-10-31T19:32:37.379Z,95321.13
2017-10-31T19:47:34.798Z,95320.34
2017-10-31T22:02:34.755Z,95315.58
2017-10-31T22:17:37.125Z,95324.22
2017-10-31T22:32:37.037Z,95317.69
2017-10-31T23:02:34.886Z,95301.98
2017-10-31T23:32:35.284Z,95293.84
